Time;durP1;ratioP1;P1;durP2;ratioP2;P2;SDS_P1;SDS_P2;PMS_P1;PMS_P2;Temp;Humidity;BMP_temperature;BMP_pressure;BME280_temperature;BME280_humidity;BME280_pressure;Samples;Min_cycle;Max_cycle;Signal;HPM_P1;HPM_P2
2023/03/25 09:06:54;;;;;;;;;;;;;;;;;;5621088;23;20006;-84
2023/03/25 09:09:19;;;;;;;;;;;;;;;;;;4918049;29;20337;-80
2023/03/25 09:11:44;;;;;;;;;;;;;;;;;;4918176;29;19969;-82
2023/03/25 09:14:10;;;;;;;;;;;;;;;;;;4918166;29;20024;-80
2023/03/25 10:46:21;;;;;;;;;;;;;;;;;;4913123;29;20062;-85
2023/03/25 10:48:47;;;;;;;;;;;;;;;;;;4900374;29;20010;-84
2023/03/25 10:51:15;;;;;;;;;;;;;;;;;;4900118;29;19923;-83
2023/03/25 10:53:41;;;;;;;;;;;;;;;;;;4901647;29;19916;-85
2023/03/25 10:56:08;;;;;;;;;;;;;;;;;;4901328;29;19918;-84
2023/03/25 10:58:36;;;;;;;;;;;;;;;;;;4901058;29;19915;-83
2023/03/25 11:01:04;;;;;;;;;;;;;;;;;;4901060;29;19912;-82
2023/03/25 11:03:32;;;;;;;;;;;;;;;;;;4899791;29;19915;-81
2023/03/25 11:05:58;;;;;;;;;;;;;;;;;;4899922;29;20366;-83
2023/03/25 11:08:24;;;;;;;;;;;;;;;;;;4901280;29;19922;-83
2023/03/25 11:10:55;;;;;;;;;;;;;;;;;;4899994;29;19915;-83
2023/03/25 11:13:25;;;;;;;;;;;;;;;;;;4899644;29;19924;-83
2023/03/25 11:15:52;;;;;;;;;;;;;;;;;;4899291;29;19922;-83
2023/03/25 11:18:26;;;;;;;;;;;;;;;;;;4899936;29;20422;-84
2023/03/25 11:20:56;;;;;;;;;;;;;;;;;;4899896;29;19916;-83
2023/03/25 11:23:26;;;;;;;;;;;;;;;;;;4900754;29;20404;-84
2023/03/25 11:25:54;;;;;;;;;;;;;;;;;;4899685;29;19977;-83
2023/03/25 11:28:26;;;;;;;;;;;;;;;;;;4899677;29;19915;-83
2023/03/25 11:31:09;;;;;;;;;;;;;;;;;;4900505;29;19916;-83
2023/03/25 11:33:36;;;;;;;;;;;;;;;;;;4900677;29;19922;-83
2023/03/25 11:36:17;;;;;;;;;;;;;;;;;;4899550;29;19911;-84
2023/03/25 11:38:45;;;;;;;;;;;;;;;;;;4899368;29;20015;-87
2023/03/25 11:41:12;;;;;;;;;;;;;;;;;;4900755;29;19968;-87
2023/03/25 11:43:38;;;;;;;;;;;;;;;;;;4900607;29;19998;-86
2023/03/25 11:46:22;;;;;;;;;;;;;;;;;;4901525;29;19980;-84
2023/03/25 11:48:49;;;;;;;;;;;;;;;;;;4919234;29;20330;-85
2023/03/25 11:51:17;;;;;;;;;;;;;;;;;;4919125;29;19922;-85
2023/03/25 11:53:44;;;;;;;;;;;;;;;;;;4902363;29;20329;-85
2023/03/25 11:56:10;;;;;;;;;;;;;;;;;;4902059;29;19914;-85
2023/03/25 11:58:37;;;;;;;;;;;;;;;;;;4901780;29;19958;-85
2023/03/25 12:01:06;;;;;;;;;;;;;;;;;;4902177;29;19922;-87
2023/03/25 12:03:33;;;;;;;;;;;;;;;;;;4902430;29;19926;-86
2023/03/25 12:06:02;;;;;;;;;;;;;;;;;;4902166;29;19915;-86
2023/03/25 12:08:29;;;;;;;;;;;;;;;;;;4918967;29;19911;-86
2023/03/25 12:11:05;;;;;;;;;;;;;;;;;;4919004;29;20289;-86
2023/03/25 12:13:40;;;;;;;;;;;;;;;;;;4902149;29;19922;-86
2023/03/25 12:16:13;;;;;;;;;;;;;;;;;;4901860;29;19916;-86
2023/03/25 12:18:55;;;;;;;;;;;;;;;;;;4901890;29;19997;-86
2023/03/25 12:21:30;;;;;;;;;;;;;;;;;;4901960;29;20286;-87
2023/03/25 12:24:14;;;;;;;;;;;;;;;;;;4902461;29;20022;-88
2023/03/25 12:26:58;;;;;;;;;;;;;;;;;;4902919;29;19970;-88
2023/03/25 12:29:23;;;;;;;;;;;;;;;;;;4919239;29;19919;-86
2023/03/25 12:31:58;;;;;;;;;;;;;;;;;;4901893;29;19922;-86
2023/03/25 12:34:35;;;;;;;;;;;;;;;;;;4901656;29;19915;-85
2023/03/25 12:37:16;;;;;;;;;;;;;;;;;;4918847;29;19918;-84
2023/03/25 12:39:44;;;;;;;;;;;;;;;;;;4918614;29;20393;-84
2023/03/25 12:42:34;;;;;;;;;;;;;;;;;;4918779;29;20006;-84
2023/03/25 12:44:59;;;;;;;;;;;;;;;;;;4902189;29;20259;-87
2023/03/25 12:47:24;;;;;;;;;;;;;;;;;;4918542;29;19925;-85
2023/03/25 12:49:50;;;;;;;;;;;;;;;;;;4918338;29;19970;-85
2023/03/25 12:52:36;;;;;;;3.63;3.17;;;;;;;;;;4917868;29;19915;-84
2023/03/25 12:55:08;;;;;;;;;;;;;;;;;;4901921;29;20499;-84
2023/03/25 12:57:42;;;;;;;;;;;;;;;;;;4918504;29;20381;-84
2023/03/25 13:00:20;;;;;;;;;;;;;;;;;;4918204;29;19994;-83
2023/03/25 13:03:04;;;;;;;;;;;;;;;;;;4917743;29;19947;-85
2023/03/25 13:05:35;;;;;;;;;;;;;;;;;;4918474;29;19915;-84
2023/03/25 13:08:03;;;;;;;;;;;;;;;;;;4917642;29;19921;-84
2023/03/25 13:10:36;;;;;;;;;;;;;;;;;;4900947;29;19919;-84
2023/03/25 13:13:23;;;;;;;;;;;;;;;;;;4900865;29;19915;-86
2023/03/25 13:15:57;;;;;;;;;;;;;;;;;;4917807;29;19911;-84
2023/03/25 13:18:35;;;;;;;;;;;;;;;;;;4917871;29;20017;-84
2023/03/25 13:21:07;;;;;;;;;;;;;;;;;;4900780;29;20293;-84
2023/03/25 13:23:34;;;;;;;;;;;;;;;;;;4917844;29;20319;-83
2023/03/25 13:26:05;;;;;;;;;;;;;;;;;;4919856;29;19922;-83
2023/03/25 13:28:54;;;;;;;;;;;;;;;;;;4900639;29;20418;-85
2023/03/25 13:31:22;;;;;;;;;;;;;;;;;;4893232;29;19993;-85
2023/03/25 13:33:52;;;;;;;;;;;;;;;;;;4900610;29;19922;-85
2023/03/25 13:36:30;;;;;;;;;;;;;;;;;;4900664;29;20286;-85
2023/03/25 13:39:03;;;;;;;;;;;;;;;;;;4917940;29;19958;-85
2023/03/25 13:41:38;;;;;;;;;;;;;;;;;;4900802;29;20375;-85
2023/03/25 13:44:15;;;;;;;;;;;;;;;;;;4917626;29;20278;-85
2023/03/25 13:46:46;;;;;;;;;;;;;;;;;;4900163;29;19958;-85
2023/03/25 13:49:17;;;;;;;;;;;;;;;;;;4917291;29;20418;-85
2023/03/25 13:51:42;;;;;;;;;;;;;;;;;;4917358;29;20275;-85
2023/03/25 13:54:28;;;;;;;;;;;;;;;;;;4916917;29;19923;-85
2023/03/25 13:56:59;;;;;;;;;;;;;;;;;;4916706;29;19972;-86
2023/03/25 13:59:54;;;;;;;;;;;;;;;;;;4899709;29;19970;-86
2023/03/25 14:02:20;;;;;;;;;;;;;;;;;;4856694;29;19920;-84
2023/03/25 14:05:04;;;;;;;;;;;;;;;;;;4894169;29;19922;-85
2023/03/25 14:07:45;;;;;;;;;;;;;;;;;;4886925;29;19915;-85
2023/03/25 14:10:10;;;;;;;;;;;;;;;;;;4899359;29;19954;-80
2023/03/25 14:12:46;;;;;;;;;;;;;;;;;;4916263;29;19973;-83
2023/03/25 14:15:18;;;;;;;;;;;;;;;;;;4918536;29;19921;-84
2023/03/25 14:17:47;;;;;;;;;;;;;;;;;;4906096;29;19915;-83
2023/03/25 14:20:17;;;;;;;;;;;;;;;;;;4906424;29;20346;-83
2023/03/25 14:22:43;;;;;;;;;;;;;;;;;;4919565;29;19922;-84
2023/03/25 14:25:27;;;;;;;;;;;;;;;;;;4919686;29;19915;-83
2023/03/25 14:27:53;;;;;;;;;;;;;;;;;;4919520;29;19915;-83
2023/03/25 14:30:19;;;;;;;;;;;;;;;;;;4919434;29;19962;-83
2023/03/25 14:32:44;;;;;;;;;;;;;;;;;;4918878;29;20273;-82
2023/03/25 14:35:30;;;;;;;;;;;;;;;;;;4919537;29;19921;-83
2023/03/25 14:37:55;;;;;;;;;;;;;;;;;;4898337;29;19915;-84
2023/03/25 14:40:45;;;;;;;;;;;;;;;;;;4883801;29;19962;-85
2023/03/25 14:43:22;;;;;;;;;;;;;;;;;;4900490;29;19977;-85
2023/03/25 14:48:47;;;;;;;;;;;;;;;;;;5112216;27;20354;-86
2023/03/25 14:51:28;;;;;;;;;;;;;;;;;;5114771;27;19966;-86
2023/03/25 14:53:53;;;;;;;;;;;;;;;;;;5110871;28;20320;-87
2023/03/25 14:56:22;;;;;;;;;;;;;;;;;;5112199;28;19916;-84
2023/03/25 14:58:51;;;;;;;;;;;;;;;;;;5111385;28;19967;-84
2023/03/25 15:01:18;;;;;;;;;;;;;;;;;;5111732;28;19920;-84
2023/03/25 15:03:44;;;;;;;;;;;;;;;;;;5111574;28;19923;-84
2023/03/25 15:06:18;;;;;;;;;;;;;;;;;;5110277;28;20006;-83
2023/03/25 15:08:50;;;;;;;;;;;;;;;;;;5111485;28;19966;-84
2023/03/25 15:11:17;;;;;;;;;;;;;;;;;;5110304;28;19916;-83
2023/03/25 15:13:51;;;;;;;;;;;;;;;;;;5112017;28;19930;-84
2023/03/25 15:16:21;;;;;;;;;;;;;;;;;;5112129;28;19920;-87
2023/03/25 15:18:48;;;;;;;;;;;;;;;;;;5110756;28;20350;-83
2023/03/25 15:21:13;;;;;;;;;;;;;;;;;;5111847;28;19970;-85
2023/03/25 15:23:48;;;;;;;;;;;;;;;;;;5111462;28;19916;-86
2023/03/25 15:26:31;;;;;;;;;;;;;;;;;;5110238;28;20007;-85
2023/03/25 15:29:06;;;;;;;;;;;;;;;;;;5111419;28;20012;-83
2023/03/25 15:31:43;;;;;;;;;;;;;;;;;;5111276;28;19916;-84
2023/03/25 15:34:08;;;;;;;;;;;;;;;;;;5111174;28;19916;-84
2023/03/25 15:36:33;;;;;;;;;;;;;;;;;;5111262;28;20259;-85
2023/03/25 15:39:05;;;;;;;;;;;;;;;;;;5111324;28;19922;-85
2023/03/25 15:41:33;;;;;;;;;;;;;;;;;;5111169;28;19981;-86
2023/03/25 15:44:02;;;;;;;;;;;;;;;;;;5109696;28;19916;-84
2023/03/25 15:46:33;;;;;;;;;;;;;;;;;;5111034;28;20457;-83
2023/03/25 15:49:17;;;;;;;;;;;;;;;;;;5109596;28;19942;-83
2023/03/25 15:51:48;;;;;;;;;;;;;;;;;;5110791;28;19916;-83
2023/03/25 15:54:25;;;;;;;;;;;;;;;;;;5109225;28;19997;-83
2023/03/25 15:56:53;;;;;;;;;;;;;;;;;;5109721;28;19924;-85
2023/03/25 15:59:47;;;;;;;;;;;;;;;;;;5100787;28;20426;-82
2023/03/25 16:02:22;;;;;;;;;;;;;;;;;;5087337;28;20366;-83
2023/03/25 16:04:49;;;;;;;;;;;;;;;;;;5097099;28;20366;-83
2023/03/25 19:15:05;;;;;;;;;;;;;;;;;;5263710;23;19929;-86
2023/03/25 19:17:30;;;;;;;;;;;;;;;;;;4993075;28;19929;-90
2023/03/25 19:19:56;;;;;;;;;;;;;;;;;;4994344;28;19918;-84
2023/03/25 19:22:23;;;;;;;;;;;;;;;;;;4994339;28;19922;-83
2023/03/25 19:24:49;;;;;;;;;;;;;;;;;;4994266;28;19918;-83
2023/03/25 19:27:14;;;;;;;;;;;;;;;;;;4994402;28;19924;-86
2023/03/25 19:29:39;;;;;;;;;;;;;;;;;;4994484;28;20368;-85
2023/03/25 19:32:05;;;;;;;;;;;;;;;;;;4994472;28;19925;-84
2023/03/25 19:34:30;;;;;;;;;;;;;;;;;;4996582;28;20436;-86
2023/03/25 19:37:01;;;;;;;;;;;;;;;;;;4998064;28;19918;-85
2023/03/25 19:39:27;;;;;;;;;;;;;;;;;;4998039;28;20244;-87
2023/03/25 19:41:52;;;;;;;;;;;;;;;;;;4990067;28;20616;-86
2023/03/25 19:44:18;;;;;;;;;;;;;;;;;;4989190;28;19925;-86
2023/03/25 19:46:43;;;;;;;;;;;;;;;;;;4997436;28;19918;-84
2023/03/25 19:49:08;;;;;;;;;;;;;;;;;;4997795;28;19921;-85
2023/03/25 19:51:33;;;;;;;;;;;;;;;;;;4981364;28;19919;-83
2023/03/25 19:53:59;;;;;;;;;;;;;;;;;;4978427;28;19918;-84
2023/03/25 19:56:24;;;;;;;;;;;;;;;;;;4978257;28;19918;-82
2023/03/25 19:58:50;;;;;;;;;;;;;;;;;;4982565;28;19917;-83
2023/03/25 20:01:16;;;;;;;;;;;;;;;;;;4997359;28;19960;-82
2023/03/25 20:03:42;;;;;;;;;;;;;;;;;;4997336;28;19921;-83
2023/03/25 20:06:08;;;;;;;;;;;;;;;;;;4997268;28;19925;-83
2023/03/25 20:08:33;;;;;;;;;;;;;;;;;;4995775;28;20387;-84
2023/03/25 20:10:59;;;;;;;;;;;;;;;;;;4997336;28;20000;-83
2023/03/25 20:13:25;;;;;;;;;;;;;;;;;;4996955;28;20374;-83
2023/03/25 20:15:51;;;;;;;;;;;;;;;;;;4991269;28;19949;-83
2023/03/25 20:18:16;;;;;;;;;;;;;;;;;;4977591;28;19918;-82
2023/03/25 20:20:42;;;;;;;;;;;;;;;;;;4983647;28;19922;-85
2023/03/25 20:23:07;;;;;;;;;;;;;;;;;;4997045;28;20360;-81
2023/03/25 20:25:32;;;;;;;;;;;;;;;;;;4997147;28;19925;-82
2023/03/25 20:27:58;;;;;;;;;;;;;;;;;;4996898;28;19922;-83
2023/03/25 20:30:23;;;;;;;;;;;;;;;;;;4997271;28;19922;-83
2023/03/25 20:32:49;;;;;;;;;;;;;;;;;;4996749;28;19977;-83
2023/03/25 20:35:15;;;;;;;;;;;;;;;;;;4997002;28;19918;-83
2023/03/25 20:37:40;;;;;;;;;;;;;;;;;;4996967;28;20013;-83
2023/03/25 20:40:10;;;;;;;;;;;;;;;;;;4997013;28;20352;-83
2023/03/25 20:42:35;;;;;;;;;;;;;;;;;;4997115;28;19949;-84
2023/03/25 20:45:01;;;;;;;;;;;;;;;;;;4995568;28;20421;-84
2023/03/25 20:47:27;;;;;;;;;;;;;;;;;;4997021;28;20272;-84
2023/03/25 20:49:52;;;;;;;;;;;;;;;;;;4995569;28;19926;-84
2023/03/25 20:52:17;;;;;;;;;;;;;;;;;;4996420;28;19953;-84
2023/03/25 20:54:43;;;;;;;;;;;;;;;;;;4996437;28;19918;-84
2023/03/25 20:57:08;;;;;;;;;;;;;;;;;;4996757;28;19922;-84
2023/03/25 20:59:33;;;;;;;;;;;;;;;;;;4996449;28;19918;-84
2023/03/25 21:01:59;;;;;;;;;;;;;;;;;;4996607;28;19918;-84
2023/03/25 21:04:25;;;;;;;;;;;;;;;;;;4996213;28;19996;-84
2023/03/25 21:06:50;;;;;;;;;;;;;;;;;;4996226;28;19944;-84
2023/03/25 21:09:16;;;;;;;;;;;;;;;;;;4995184;28;19917;-83
2023/03/25 21:11:41;;;;;;;;;;;;;;;;;;4996572;28;19924;-84
2023/03/25 21:14:07;;;;;;;;;;;;;;;;;;4994959;28;19918;-84
2023/03/25 21:16:32;;;;;;;;;;;;;;;;;;4996041;28;20009;-84
2023/03/25 21:19:00;;;;;;;;;;;;;;;;;;4996296;28;19953;-84
2023/03/25 21:21:26;;;;;;;;;;;;;;;;;;4995789;28;19920;-84
2023/03/25 21:23:51;;;;;;;;;;;;;;;;;;4995991;28;20016;-84
2023/03/25 21:26:17;;;;;;;;;;;;;;;;;;4996160;28;19914;-84
2023/03/25 21:28:42;;;;;;;;;;;;;;;;;;4995729;28;19918;-85
2023/03/25 21:31:09;;;;;;;;;;;;;;;;;;4995839;28;19952;-84
2023/03/25 21:33:38;;;;;;;;;;;;;;;;;;4995623;28;20015;-85
2023/03/25 21:36:05;;;;;;;;;;;;;;;;;;4995928;28;20000;-85
2023/03/25 21:38:31;;;;;;;;;;;;;;;;;;4995675;28;19925;-84
2023/03/25 21:40:58;;;;;;;;;;;;;;;;;;4995721;28;20324;-84
2023/03/25 21:43:23;;;;;;;;;;;;;;;;;;4995802;28;19917;-85
2023/03/25 21:45:49;;;;;;;;;;;;;;;;;;4994367;28;20353;-84
2023/03/25 21:48:16;;;;;;;;;;;;;;;;;;4995516;28;20280;-84
2023/03/25 21:50:45;;;;;;;;;;;;;;;;;;4995440;28;19965;-83
2023/03/25 21:53:12;;;;;;;;;;;;;;;;;;4995703;28;20336;-84
2023/03/25 21:55:38;;;;;;;;;;;;;;;;;;4995720;28;19921;-84
2023/03/25 21:58:04;;;;;;;;;;;;;;;;;;4994802;28;19988;-84
2023/03/25 22:00:29;;;;;;;;;;;;;;;;;;4995444;28;20373;-85
2023/03/25 22:02:57;;;;;;;;;;;;;;;;;;4995473;28;20023;-84
2023/03/25 22:05:29;;;;;;;;;;;;;;;;;;4995280;28;20067;-84
2023/03/25 22:07:55;;;;;;;;;;;;;;;;;;4994975;28;19918;-84
2023/03/25 22:10:20;;;;;;;;;;;;;;;;;;4995277;28;19918;-85
2023/03/25 22:12:46;;;;;;;;;;;;;;;;;;4993823;28;19924;-85
2023/03/25 22:15:11;;;;;;;;;;;;;;;;;;4994930;28;19926;-85
